AMQ433 DTTJ-EPKT
Flight info
| Callsign | AMQ433 |
|---|---|
| Flight time | 2h 33m |
| Altitude | 36000 |
| Route | LILNA1A LILNA J735 RELBA UM735 BABLO DCT KAPIL DCT GIANO DCT BEROL DCT VEXUV DCT TIXIR DCT TORPO/N0444F370 DCT GISER DCT INSAX DCT TOVKA DCT ODNEM DCT UPLAV DCT BAVOK |
| Aircraft | A320/M-SDE3FGHIRWY/LB1 |
Departure
| Time | 2026-04-28 23:10 |
|---|---|
| Airport | Djerba Zarzis International Airport (DTTJ) |
Arrival
| Time | 2026-04-29 01:44 |
|---|---|
| Airport | Katowice Wojciech Korfanty International Airport (EPKT) |
| Time | Latitude | Longitude | Altitude | Speed | Heading |
|---|---|---|---|---|---|
| 2026-04-28 22:59 | 33.87242 | 10.77387 | 27 ft | 0 kts | 132° |
| 2026-04-28 23:02 | 33.87249 | 10.77377 | 27 ft | 3 kts | 132° |
| 2026-04-28 23:02 | 33.87263 | 10.77360 | 27 ft | 3 kts | 132° |
| 2026-04-28 23:02 | 33.87276 | 10.77342 | 27 ft | 3 kts | 131° |
| 2026-04-28 23:02 | 33.87289 | 10.77323 | 27 ft | 3 kts | 129° |
| 2026-04-28 23:03 | 33.87296 | 10.77313 | 27 ft | 2 kts | 127° |
| 2026-04-28 23:03 | 33.87305 | 10.77295 | 27 ft | 3 kts | 89° |
| 2026-04-28 23:03 | 33.87300 | 10.77275 | 27 ft | 3 kts | 41° |
| 2026-04-28 23:03 | 33.87284 | 10.77261 | 27 ft | 2 kts | 27° |
| 2026-04-28 23:04 | 33.87278 | 10.77257 | 27 ft | 0 kts | 27° |
| 2026-04-28 23:06 | 33.87282 | 10.77260 | 27 ft | 5 kts | 27° |
| 2026-04-28 23:06 | 33.87334 | 10.77289 | 27 ft | 8 kts | 12° |
| 2026-04-28 23:06 | 33.87364 | 10.77188 | 27 ft | 19 kts | 270° |
| 2026-04-28 23:06 | 33.87361 | 10.77035 | 27 ft | 17 kts | 267° |
| 2026-04-28 23:07 | 33.87357 | 10.76896 | 25 ft | 17 kts | 269° |
| 2026-04-28 23:07 | 33.87353 | 10.76758 | 22 ft | 16 kts | 268° |
| 2026-04-28 23:07 | 33.87350 | 10.76622 | 20 ft | 16 kts | 268° |
| 2026-04-28 23:07 | 33.87347 | 10.76475 | 21 ft | 19 kts | 268° |
| 2026-04-28 23:08 | 33.87344 | 10.76318 | 20 ft | 19 kts | 266° |
| 2026-04-28 23:08 | 33.87342 | 10.76156 | 17 ft | 20 kts | 269° |
| 2026-04-28 23:08 | 33.87404 | 10.76055 | 19 ft | 10 kts | 357° |
| 2026-04-28 23:08 | 33.87409 | 10.76055 | 19 ft | 0 kts | 358° |
| 2026-04-28 23:09 | 33.87459 | 10.76053 | 21 ft | 9 kts | 358° |
| 2026-04-28 23:09 | 33.87500 | 10.76084 | 22 ft | 10 kts | 65° |
| 2026-04-28 23:09 | 33.87506 | 10.76198 | 22 ft | 20 kts | 88° |
| 2026-04-28 23:10 | 33.87518 | 10.76666 | 21 ft | 91 kts | 88° |
| 2026-04-28 23:10 | 33.87543 | 10.77673 | 24 ft | 147 kts | 88° |
| 2026-04-28 23:10 | 33.87587 | 10.79038 | 335 ft | 164 kts | 87° |
| 2026-04-28 23:10 | 33.87782 | 10.80357 | 1008 ft | 162 kts | 61° |
| 2026-04-28 23:11 | 33.88560 | 10.81332 | 1607 ft | 165 kts | 32° |
| 2026-04-28 23:11 | 33.89656 | 10.81829 | 1959 ft | 180 kts | 2° |
| 2026-04-28 23:11 | 33.90915 | 10.81491 | 2235 ft | 194 kts | 335° |
| 2026-04-28 23:11 | 33.92204 | 10.80797 | 2541 ft | 212 kts | 333° |
| 2026-04-28 23:12 | 33.93583 | 10.79975 | 2888 ft | 228 kts | 333° |
| 2026-04-28 23:12 | 33.95081 | 10.79390 | 3608 ft | 235 kts | 353° |
| 2026-04-28 23:12 | 33.96795 | 10.79654 | 3880 ft | 262 kts | 14° |
| 2026-04-28 23:12 | 33.98594 | 10.80242 | 4340 ft | 280 kts | 13° |
| 2026-04-28 23:13 | 34.00495 | 10.80869 | 5181 ft | 280 kts | 14° |
| 2026-04-28 23:13 | 34.02345 | 10.81523 | 6016 ft | 282 kts | 15° |
| 2026-04-28 23:13 | 34.04260 | 10.82208 | 6811 ft | 284 kts | 15° |
| 2026-04-28 23:13 | 34.06145 | 10.82870 | 7559 ft | 287 kts | 15° |
| 2026-04-28 23:14 | 34.08102 | 10.83543 | 8349 ft | 290 kts | 14° |
| 2026-04-28 23:14 | 34.10037 | 10.84196 | 9117 ft | 294 kts | 14° |
| 2026-04-28 23:14 | 34.12016 | 10.84857 | 9892 ft | 297 kts | 14° |
| 2026-04-28 23:14 | 34.14027 | 10.85523 | 10378 ft | 310 kts | 14° |
| 2026-04-28 23:15 | 34.16199 | 10.86239 | 10570 ft | 334 kts | 14° |
| 2026-04-28 23:15 | 34.18502 | 10.86998 | 10876 ft | 350 kts | 14° |
| 2026-04-28 23:15 | 34.20877 | 10.87785 | 11482 ft | 356 kts | 14° |
| 2026-04-28 23:15 | 34.23278 | 10.88585 | 12157 ft | 360 kts | 14° |
| 2026-04-28 23:16 | 34.25706 | 10.89395 | 12829 ft | 364 kts | 13° |
| 2026-04-28 23:16 | 34.28167 | 10.90215 | 13487 ft | 368 kts | 13° |
| 2026-04-28 23:16 | 34.30647 | 10.91042 | 14101 ft | 372 kts | 13° |
| 2026-04-28 23:16 | 34.33158 | 10.91882 | 14672 ft | 376 kts | 13° |
| 2026-04-28 23:17 | 34.35688 | 10.92733 | 15239 ft | 380 kts | 13° |
| 2026-04-28 23:17 | 34.38254 | 10.93597 | 15808 ft | 384 kts | 12° |
| 2026-04-28 23:17 | 34.40836 | 10.94468 | 16376 ft | 387 kts | 12° |
| 2026-04-28 23:17 | 34.43441 | 10.95346 | 16930 ft | 391 kts | 12° |
| 2026-04-28 23:18 | 34.46076 | 10.96233 | 17503 ft | 395 kts | 12° |
| 2026-04-28 23:18 | 34.48734 | 10.97127 | 18067 ft | 398 kts | 12° |
| 2026-04-28 23:18 | 34.51413 | 10.98031 | 18573 ft | 402 kts | 12° |
| 2026-04-28 23:18 | 34.54110 | 10.98944 | 19077 ft | 405 kts | 12° |
| 2026-04-28 23:19 | 34.56835 | 10.99873 | 19583 ft | 408 kts | 12° |
| 2026-04-28 23:19 | 34.59578 | 11.00807 | 20088 ft | 411 kts | 12° |
| 2026-04-28 23:19 | 34.62343 | 11.01746 | 20592 ft | 414 kts | 11° |
| 2026-04-28 23:19 | 34.65131 | 11.02690 | 21079 ft | 417 kts | 11° |
| 2026-04-28 23:20 | 34.67929 | 11.03640 | 21578 ft | 420 kts | 11° |
| 2026-04-28 23:20 | 34.70746 | 11.04597 | 22052 ft | 423 kts | 11° |
| 2026-04-28 23:20 | 34.73590 | 11.05563 | 22515 ft | 425 kts | 11° |
| 2026-04-28 23:20 | 34.76444 | 11.06530 | 22967 ft | 428 kts | 11° |
| 2026-04-28 23:21 | 34.79333 | 11.07507 | 23415 ft | 431 kts | 11° |
| 2026-04-28 23:21 | 34.82235 | 11.08492 | 23789 ft | 434 kts | 11° |
| 2026-04-28 23:21 | 34.85149 | 11.09484 | 24147 ft | 437 kts | 11° |
| 2026-04-28 23:21 | 34.88083 | 11.10481 | 24489 ft | 439 kts | 10° |
| 2026-04-28 23:22 | 34.91030 | 11.11222 | 24818 ft | 437 kts | 4° |
| 2026-04-28 23:22 | 34.94082 | 11.11816 | 25159 ft | 440 kts | 4° |
| 2026-04-28 23:22 | 34.97068 | 11.12400 | 25487 ft | 442 kts | 4° |
| 2026-04-28 23:22 | 35.00115 | 11.12998 | 25826 ft | 444 kts | 4° |
| 2026-04-28 23:23 | 35.03163 | 11.13601 | 26160 ft | 446 kts | 4° |
| 2026-04-28 23:23 | 35.06234 | 11.14206 | 26485 ft | 448 kts | 4° |
| 2026-04-28 23:23 | 35.09317 | 11.14813 | 26805 ft | 450 kts | 3° |
| 2026-04-28 23:23 | 35.12411 | 11.15422 | 27116 ft | 452 kts | 3° |
| 2026-04-28 23:24 | 35.15530 | 11.16038 | 27420 ft | 454 kts | 3° |
| 2026-04-28 23:24 | 35.18687 | 11.16664 | 27724 ft | 456 kts | 3° |
| 2026-04-28 23:24 | 35.21835 | 11.17285 | 28019 ft | 458 kts | 3° |
| 2026-04-28 23:24 | 35.24987 | 11.17908 | 28306 ft | 460 kts | 3° |
| 2026-04-28 23:25 | 35.28153 | 11.18533 | 28583 ft | 462 kts | 3° |
| 2026-04-28 23:25 | 35.31337 | 11.19162 | 28842 ft | 464 kts | 3° |
| 2026-04-28 23:25 | 35.34522 | 11.19792 | 29099 ft | 466 kts | 3° |
| 2026-04-28 23:25 | 35.37731 | 11.20428 | 29355 ft | 467 kts | 3° |
| 2026-04-28 23:26 | 35.40945 | 11.21066 | 29602 ft | 469 kts | 3° |
| 2026-04-28 23:26 | 35.44171 | 11.21706 | 29839 ft | 471 kts | 3° |
| 2026-04-28 23:26 | 35.47415 | 11.22348 | 30053 ft | 473 kts | 3° |
| 2026-04-28 23:26 | 35.50660 | 11.22993 | 30295 ft | 473 kts | 4° |
| 2026-04-28 23:27 | 35.53905 | 11.23643 | 30580 ft | 471 kts | 3° |
| 2026-04-28 23:27 | 35.57096 | 11.24281 | 30854 ft | 470 kts | 3° |
| 2026-04-28 23:27 | 35.60326 | 11.24924 | 31131 ft | 470 kts | 3° |
| 2026-04-28 23:27 | 35.63553 | 11.25566 | 31398 ft | 469 kts | 3° |
| 2026-04-28 23:28 | 35.66765 | 11.26207 | 31670 ft | 468 kts | 3° |
| 2026-04-28 23:28 | 35.69982 | 11.26852 | 31935 ft | 468 kts | 3° |
| 2026-04-28 23:28 | 35.73196 | 11.27502 | 32190 ft | 468 kts | 2° |
| 2026-04-28 23:28 | 35.76410 | 11.28154 | 32422 ft | 468 kts | 2° |
| 2026-04-28 23:29 | 35.79624 | 11.28805 | 32667 ft | 468 kts | 2° |
| 2026-04-28 23:29 | 35.82840 | 11.29456 | 32923 ft | 468 kts | 1° |
| 2026-04-28 23:29 | 35.86058 | 11.30104 | 33178 ft | 468 kts | 1° |
| 2026-04-28 23:29 | 35.89263 | 11.30746 | 33433 ft | 468 kts | 1° |
| 2026-04-28 23:30 | 35.92472 | 11.31389 | 33705 ft | 467 kts | 2° |
| 2026-04-28 23:30 | 35.95679 | 11.32032 | 33980 ft | 466 kts | 2° |
| 2026-04-28 23:30 | 35.98878 | 11.32675 | 34209 ft | 466 kts | 2° |
| 2026-04-28 23:30 | 36.02068 | 11.33315 | 34424 ft | 465 kts | 2° |
| 2026-04-28 23:31 | 36.05265 | 11.33959 | 34654 ft | 465 kts | 2° |
| 2026-04-28 23:31 | 36.08456 | 11.34608 | 34871 ft | 464 kts | 2° |
| 2026-04-28 23:31 | 36.11640 | 11.35255 | 35078 ft | 464 kts | 2° |
| 2026-04-28 23:31 | 36.14827 | 11.35897 | 35282 ft | 463 kts | 2° |
| 2026-04-28 23:32 | 36.18000 | 11.36533 | 35475 ft | 463 kts | 2° |
| 2026-04-28 23:32 | 36.21184 | 11.37174 | 35667 ft | 463 kts | 2° |
| 2026-04-28 23:32 | 36.24362 | 11.37821 | 35851 ft | 462 kts | 2° |
| 2026-04-28 23:32 | 36.27530 | 11.38467 | 35990 ft | 462 kts | 2° |
| 2026-04-28 23:33 | 36.33880 | 11.39760 | 36027 ft | 462 kts | 2° |
| 2026-04-28 23:33 | 36.40213 | 11.41054 | 36027 ft | 461 kts | 2° |
| 2026-04-28 23:34 | 36.46500 | 11.42334 | 36023 ft | 461 kts | 3° |
| 2026-04-28 23:34 | 36.52833 | 11.43624 | 36032 ft | 460 kts | 3° |
| 2026-04-28 23:35 | 36.59157 | 11.44909 | 36031 ft | 460 kts | 3° |
| 2026-04-28 23:35 | 36.65474 | 11.46210 | 36034 ft | 460 kts | 3° |
| 2026-04-28 23:36 | 36.71785 | 11.47504 | 36038 ft | 459 kts | 3° |
| 2026-04-28 23:36 | 36.78089 | 11.48796 | 36042 ft | 459 kts | 3° |
| 2026-04-28 23:37 | 36.84387 | 11.50197 | 36036 ft | 463 kts | 9° |
| 2026-04-28 23:37 | 36.90549 | 11.52640 | 36038 ft | 465 kts | 12° |
| 2026-04-28 23:38 | 36.96701 | 11.55144 | 36041 ft | 465 kts | 12° |
| 2026-04-28 23:38 | 37.02844 | 11.57645 | 36040 ft | 464 kts | 12° |
| 2026-04-28 23:39 | 37.08987 | 11.60140 | 36043 ft | 464 kts | 12° |
| 2026-04-28 23:39 | 37.15119 | 11.62628 | 36048 ft | 463 kts | 12° |
| 2026-04-28 23:40 | 37.21207 | 11.65109 | 36050 ft | 463 kts | 13° |
| 2026-04-28 23:40 | 37.27326 | 11.67611 | 36055 ft | 462 kts | 13° |
| 2026-04-28 23:41 | 37.33436 | 11.70119 | 36049 ft | 462 kts | 13° |
| 2026-04-28 23:41 | 37.39531 | 11.72622 | 36048 ft | 461 kts | 13° |
| 2026-04-28 23:42 | 37.45630 | 11.75126 | 36050 ft | 461 kts | 13° |
| 2026-04-28 23:42 | 37.51731 | 11.77629 | 36049 ft | 460 kts | 13° |
| 2026-04-28 23:43 | 37.57817 | 11.80127 | 36053 ft | 460 kts | 13° |
| 2026-04-28 23:43 | 37.63903 | 11.82633 | 36056 ft | 460 kts | 13° |
| 2026-04-28 23:44 | 37.69984 | 11.85162 | 36054 ft | 459 kts | 13° |
| 2026-04-28 23:44 | 37.76054 | 11.87682 | 36053 ft | 459 kts | 13° |
| 2026-04-28 23:45 | 37.82117 | 11.90191 | 36059 ft | 459 kts | 13° |
| 2026-04-28 23:45 | 37.87155 | 11.92282 | 36060 ft | 458 kts | 13° |
| 2026-04-28 23:46 | 37.93213 | 11.94805 | 36051 ft | 458 kts | 13° |
| 2026-04-28 23:46 | 37.99270 | 11.97329 | 36051 ft | 458 kts | 13° |
| 2026-04-28 23:47 | 38.05328 | 11.99859 | 36055 ft | 458 kts | 13° |
| 2026-04-28 23:47 | 38.11383 | 12.02395 | 36052 ft | 458 kts | 13° |
| 2026-04-28 23:48 | 38.17424 | 12.04931 | 36051 ft | 458 kts | 13° |
| 2026-04-28 23:48 | 38.23482 | 12.07478 | 36055 ft | 458 kts | 13° |
| 2026-04-28 23:49 | 38.29525 | 12.10020 | 36051 ft | 458 kts | 13° |
| 2026-04-28 23:49 | 38.35554 | 12.12610 | 36058 ft | 460 kts | 18° |
| 2026-04-28 23:50 | 38.41351 | 12.16141 | 36060 ft | 462 kts | 21° |
| 2026-04-28 23:50 | 38.47125 | 12.19752 | 36063 ft | 462 kts | 21° |
| 2026-04-28 23:51 | 38.52902 | 12.23358 | 36059 ft | 462 kts | 22° |
| 2026-04-28 23:51 | 38.58669 | 12.26958 | 36061 ft | 461 kts | 22° |
| 2026-04-28 23:52 | 38.64430 | 12.30569 | 36059 ft | 461 kts | 22° |
| 2026-04-28 23:52 | 38.70184 | 12.34186 | 36056 ft | 461 kts | 22° |
| 2026-04-28 23:53 | 38.75941 | 12.37805 | 36064 ft | 461 kts | 22° |
| 2026-04-28 23:53 | 38.81688 | 12.41435 | 36060 ft | 460 kts | 23° |
| 2026-04-28 23:54 | 38.87432 | 12.44922 | 36059 ft | 457 kts | 17° |
| 2026-04-28 23:54 | 38.93461 | 12.47466 | 36056 ft | 456 kts | 14° |
| 2026-04-28 23:55 | 38.99492 | 12.49973 | 36057 ft | 456 kts | 14° |
| 2026-04-28 23:55 | 39.05521 | 12.52490 | 36053 ft | 456 kts | 15° |
| 2026-04-28 23:56 | 39.11555 | 12.54999 | 36053 ft | 456 kts | 15° |
| 2026-04-28 23:56 | 39.17590 | 12.57521 | 36054 ft | 455 kts | 15° |
| 2026-04-28 23:57 | 39.23618 | 12.60049 | 36051 ft | 455 kts | 15° |
| 2026-04-28 23:57 | 39.29639 | 12.62577 | 36049 ft | 455 kts | 15° |
| 2026-04-28 23:58 | 39.35659 | 12.65113 | 36055 ft | 455 kts | 15° |
| 2026-04-28 23:58 | 39.41680 | 12.67654 | 36053 ft | 455 kts | 15° |
| 2026-04-28 23:59 | 39.47656 | 12.70179 | 36052 ft | 454 kts | 15° |
| 2026-04-28 23:59 | 39.53662 | 12.72721 | 36055 ft | 454 kts | 16° |
| 2026-04-29 00:00 | 39.59674 | 12.75267 | 36060 ft | 454 kts | 16° |
| 2026-04-29 00:00 | 39.65668 | 12.77811 | 36063 ft | 453 kts | 16° |
| 2026-04-29 00:01 | 39.71659 | 12.80358 | 36062 ft | 453 kts | 16° |
| 2026-04-29 00:01 | 39.77646 | 12.82910 | 36066 ft | 452 kts | 16° |
| 2026-04-29 00:02 | 39.83621 | 12.85471 | 36061 ft | 452 kts | 16° |
| 2026-04-29 00:02 | 39.89600 | 12.88029 | 36060 ft | 452 kts | 16° |
| 2026-04-29 00:03 | 39.95569 | 12.90583 | 36063 ft | 451 kts | 16° |
| 2026-04-29 00:03 | 40.01536 | 12.93139 | 36063 ft | 451 kts | 16° |
| 2026-04-29 00:04 | 40.07499 | 12.95701 | 36062 ft | 451 kts | 16° |
| 2026-04-29 00:04 | 40.13458 | 12.98268 | 36060 ft | 451 kts | 16° |
| 2026-04-29 00:05 | 40.19416 | 13.00843 | 36055 ft | 451 kts | 16° |
| 2026-04-29 00:05 | 40.25223 | 13.03989 | 36058 ft | 452 kts | 21° |
| 2026-04-29 00:06 | 40.30994 | 13.07284 | 36061 ft | 452 kts | 21° |
| 2026-04-29 00:06 | 40.36758 | 13.10575 | 36059 ft | 452 kts | 21° |
| 2026-04-29 00:07 | 40.42535 | 13.13862 | 36061 ft | 452 kts | 21° |
| 2026-04-29 00:07 | 40.48306 | 13.17153 | 36060 ft | 452 kts | 21° |
| 2026-04-29 00:08 | 40.54026 | 13.20431 | 36059 ft | 452 kts | 21° |
| 2026-04-29 00:08 | 40.59787 | 13.23738 | 36060 ft | 452 kts | 21° |
| 2026-04-29 00:09 | 40.65551 | 13.27054 | 36064 ft | 452 kts | 21° |
| 2026-04-29 00:09 | 40.71341 | 13.30233 | 36060 ft | 449 kts | 14° |
| 2026-04-29 00:10 | 40.77341 | 13.32475 | 36061 ft | 449 kts | 13° |
| 2026-04-29 00:10 | 40.83348 | 13.34721 | 36064 ft | 448 kts | 13° |
| 2026-04-29 00:11 | 40.89350 | 13.36965 | 36062 ft | 448 kts | 13° |
| 2026-04-29 00:12 | 40.98349 | 13.40347 | 36065 ft | 448 kts | 13° |
| 2026-04-29 00:12 | 41.04341 | 13.42610 | 36066 ft | 448 kts | 13° |
| 2026-04-29 00:13 | 41.10327 | 13.44872 | 36067 ft | 447 kts | 13° |
| 2026-04-29 00:13 | 41.16309 | 13.47133 | 36071 ft | 447 kts | 13° |
| 2026-04-29 00:14 | 41.22294 | 13.49400 | 36077 ft | 447 kts | 13° |
| 2026-04-29 00:14 | 41.28270 | 13.51664 | 36079 ft | 446 kts | 13° |
| 2026-04-29 00:15 | 41.34239 | 13.53929 | 36079 ft | 446 kts | 13° |
| 2026-04-29 00:15 | 41.40211 | 13.56202 | 36086 ft | 446 kts | 13° |
| 2026-04-29 00:16 | 41.46169 | 13.58470 | 36085 ft | 445 kts | 13° |
| 2026-04-29 00:16 | 41.52120 | 13.60740 | 36086 ft | 445 kts | 13° |
| 2026-04-29 00:17 | 41.58072 | 13.63018 | 36099 ft | 445 kts | 13° |
| 2026-04-29 00:17 | 41.64012 | 13.65304 | 36092 ft | 444 kts | 13° |
| 2026-04-29 00:18 | 41.69951 | 13.67591 | 36104 ft | 444 kts | 13° |
| 2026-04-29 00:18 | 41.75887 | 13.69875 | 36106 ft | 444 kts | 13° |
| 2026-04-29 00:19 | 41.81819 | 13.72166 | 36105 ft | 443 kts | 13° |
| 2026-04-29 00:19 | 41.87711 | 13.74447 | 36091 ft | 443 kts | 13° |
| 2026-04-29 00:20 | 41.93629 | 13.76735 | 36101 ft | 443 kts | 13° |
| 2026-04-29 00:20 | 41.99555 | 13.79030 | 36092 ft | 443 kts | 13° |
| 2026-04-29 00:21 | 42.05471 | 13.81330 | 36095 ft | 443 kts | 13° |
| 2026-04-29 00:21 | 42.11392 | 13.83641 | 36086 ft | 443 kts | 13° |
| 2026-04-29 00:22 | 42.17306 | 13.85947 | 36086 ft | 443 kts | 13° |
| 2026-04-29 00:22 | 42.23229 | 13.88259 | 36072 ft | 442 kts | 13° |
| 2026-04-29 00:23 | 42.29132 | 13.90583 | 36062 ft | 442 kts | 13° |
| 2026-04-29 00:23 | 42.35032 | 13.92953 | 36050 ft | 442 kts | 13° |
| 2026-04-29 00:24 | 42.40932 | 13.95321 | 36051 ft | 442 kts | 13° |
| 2026-04-29 00:24 | 42.46836 | 13.97686 | 36050 ft | 442 kts | 13° |
| 2026-04-29 00:25 | 42.52735 | 14.00050 | 36048 ft | 442 kts | 13° |
| 2026-04-29 00:25 | 42.58632 | 14.02425 | 36048 ft | 442 kts | 13° |
| 2026-04-29 00:26 | 42.64532 | 14.04806 | 36044 ft | 442 kts | 13° |
| 2026-04-29 00:26 | 42.70423 | 14.07183 | 36042 ft | 442 kts | 13° |
| 2026-04-29 00:27 | 42.76315 | 14.09566 | 36044 ft | 442 kts | 13° |
| 2026-04-29 00:27 | 42.82203 | 14.11958 | 36043 ft | 442 kts | 13° |
| 2026-04-29 00:28 | 42.88095 | 14.14345 | 36039 ft | 442 kts | 13° |
| 2026-04-29 00:28 | 42.93986 | 14.16744 | 36040 ft | 442 kts | 13° |
| 2026-04-29 00:29 | 42.99865 | 14.19143 | 36040 ft | 442 kts | 13° |
| 2026-04-29 00:29 | 43.02811 | 14.20344 | 36258 ft | 440 kts | 12° |
| 2026-04-29 00:29 | 43.05705 | 14.21524 | 36516 ft | 438 kts | 12° |
| 2026-04-29 00:29 | 43.08661 | 14.22731 | 36784 ft | 436 kts | 12° |
| 2026-04-29 00:30 | 43.10579 | 14.23517 | 36943 ft | 436 kts | 12° |
| 2026-04-29 00:30 | 43.17376 | 14.26315 | 37046 ft | 440 kts | 12° |
| 2026-04-29 00:31 | 43.23250 | 14.28730 | 37045 ft | 441 kts | 12° |
| 2026-04-29 00:31 | 43.28179 | 14.30758 | 37047 ft | 441 kts | 12° |
| 2026-04-29 00:32 | 43.34056 | 14.33186 | 37050 ft | 441 kts | 12° |
| 2026-04-29 00:32 | 43.39887 | 14.35598 | 37050 ft | 441 kts | 12° |
| 2026-04-29 00:33 | 43.45755 | 14.38036 | 37054 ft | 440 kts | 12° |
| 2026-04-29 00:33 | 43.51621 | 14.40482 | 37059 ft | 440 kts | 12° |
| 2026-04-29 00:34 | 43.57479 | 14.42932 | 37060 ft | 440 kts | 13° |
| 2026-04-29 00:34 | 43.63288 | 14.45667 | 37060 ft | 442 kts | 15° |
| 2026-04-29 00:35 | 43.69061 | 14.48586 | 37066 ft | 442 kts | 15° |
| 2026-04-29 00:35 | 43.74836 | 14.51489 | 37060 ft | 441 kts | 14° |
| 2026-04-29 00:36 | 43.80623 | 14.54327 | 37060 ft | 441 kts | 14° |
| 2026-04-29 00:36 | 43.86411 | 14.57150 | 37060 ft | 441 kts | 14° |
| 2026-04-29 00:37 | 43.92193 | 14.59992 | 37063 ft | 441 kts | 14° |
| 2026-04-29 00:37 | 43.97973 | 14.62847 | 37061 ft | 441 kts | 14° |
| 2026-04-29 00:38 | 44.03752 | 14.65705 | 37062 ft | 441 kts | 14° |
| 2026-04-29 00:38 | 44.09528 | 14.68568 | 37064 ft | 441 kts | 14° |
| 2026-04-29 00:39 | 44.15320 | 14.71438 | 37057 ft | 441 kts | 14° |
| 2026-04-29 00:39 | 44.21105 | 14.74319 | 37067 ft | 441 kts | 14° |
| 2026-04-29 00:40 | 44.26886 | 14.77219 | 37065 ft | 441 kts | 14° |
| 2026-04-29 00:40 | 44.32669 | 14.80111 | 37059 ft | 441 kts | 14° |
| 2026-04-29 00:41 | 44.38456 | 14.83001 | 37065 ft | 441 kts | 14° |
| 2026-04-29 00:41 | 44.44239 | 14.85903 | 37070 ft | 441 kts | 14° |
| 2026-04-29 00:42 | 44.50020 | 14.88813 | 37079 ft | 441 kts | 14° |
| 2026-04-29 00:42 | 44.55798 | 14.91735 | 37086 ft | 441 kts | 14° |
| 2026-04-29 00:43 | 44.61574 | 14.94654 | 37091 ft | 441 kts | 14° |
| 2026-04-29 00:43 | 44.67352 | 14.97581 | 37098 ft | 442 kts | 14° |
| 2026-04-29 00:44 | 44.73146 | 15.00511 | 37104 ft | 441 kts | 14° |
| 2026-04-29 00:44 | 44.78926 | 15.03442 | 37112 ft | 442 kts | 14° |
| 2026-04-29 00:45 | 44.84706 | 15.06388 | 37120 ft | 442 kts | 14° |
| 2026-04-29 00:45 | 44.90483 | 15.09349 | 37124 ft | 442 kts | 14° |
| 2026-04-29 00:46 | 44.96306 | 15.12332 | 37137 ft | 442 kts | 14° |
| 2026-04-29 00:46 | 45.02047 | 15.15272 | 37139 ft | 442 kts | 13° |
| 2026-04-29 00:47 | 45.07847 | 15.18222 | 37146 ft | 441 kts | 12° |
| 2026-04-29 00:47 | 45.13668 | 15.20886 | 37153 ft | 439 kts | 11° |
| 2026-04-29 00:48 | 45.19509 | 15.23407 | 37156 ft | 439 kts | 10° |
| 2026-04-29 00:48 | 45.25342 | 15.25971 | 37160 ft | 439 kts | 11° |
| 2026-04-29 00:49 | 45.31162 | 15.28603 | 37162 ft | 439 kts | 11° |
| 2026-04-29 00:49 | 45.36983 | 15.31253 | 37165 ft | 438 kts | 11° |
| 2026-04-29 00:50 | 45.42799 | 15.33890 | 37166 ft | 438 kts | 11° |
| 2026-04-29 00:50 | 45.48604 | 15.36532 | 37169 ft | 438 kts | 11° |
| 2026-04-29 00:51 | 45.54401 | 15.39164 | 37170 ft | 437 kts | 11° |
| 2026-04-29 00:51 | 45.60204 | 15.41798 | 37173 ft | 437 kts | 11° |
| 2026-04-29 00:52 | 45.65983 | 15.44430 | 37171 ft | 437 kts | 11° |
| 2026-04-29 00:52 | 45.71739 | 15.47065 | 37171 ft | 436 kts | 11° |
| 2026-04-29 00:53 | 45.77521 | 15.49732 | 37184 ft | 436 kts | 11° |
| 2026-04-29 00:53 | 45.83302 | 15.52397 | 37182 ft | 436 kts | 11° |
| 2026-04-29 00:54 | 45.89084 | 15.55066 | 37187 ft | 436 kts | 11° |
| 2026-04-29 00:54 | 45.94858 | 15.57730 | 37185 ft | 436 kts | 11° |
| 2026-04-29 00:55 | 46.00633 | 15.60393 | 37183 ft | 436 kts | 10° |
| 2026-04-29 00:55 | 46.06419 | 15.63070 | 37175 ft | 436 kts | 11° |
| 2026-04-29 00:56 | 46.12198 | 15.65753 | 37175 ft | 437 kts | 10° |
| 2026-04-29 00:56 | 46.17987 | 15.68450 | 37180 ft | 437 kts | 10° |
| 2026-04-29 00:57 | 46.23781 | 15.71162 | 37192 ft | 438 kts | 10° |
| 2026-04-29 00:57 | 46.29572 | 15.73879 | 37195 ft | 438 kts | 10° |
| 2026-04-29 00:58 | 46.35370 | 15.76598 | 37201 ft | 438 kts | 10° |
| 2026-04-29 00:58 | 46.41175 | 15.79324 | 37201 ft | 438 kts | 10° |
| 2026-04-29 00:59 | 46.46975 | 15.82048 | 37205 ft | 438 kts | 10° |
| 2026-04-29 00:59 | 46.52784 | 15.84797 | 37203 ft | 439 kts | 10° |
| 2026-04-29 01:00 | 46.58548 | 15.87526 | 37206 ft | 439 kts | 10° |
| 2026-04-29 01:00 | 46.64358 | 15.90280 | 37211 ft | 439 kts | 10° |
| 2026-04-29 01:01 | 46.70196 | 15.93058 | 37215 ft | 439 kts | 10° |
| 2026-04-29 01:01 | 46.75961 | 15.95802 | 37227 ft | 438 kts | 10° |
| 2026-04-29 01:02 | 46.81750 | 15.98574 | 37220 ft | 438 kts | 10° |
| 2026-04-29 01:02 | 46.87555 | 16.01357 | 37222 ft | 437 kts | 10° |
| 2026-04-29 01:03 | 46.93333 | 16.04127 | 37219 ft | 437 kts | 10° |
| 2026-04-29 01:03 | 46.99110 | 16.06908 | 37227 ft | 436 kts | 10° |
| 2026-04-29 01:04 | 47.04791 | 16.10193 | 37226 ft | 442 kts | 16° |
| 2026-04-29 01:04 | 47.10408 | 16.13891 | 37229 ft | 442 kts | 16° |
| 2026-04-29 01:05 | 47.16007 | 16.17594 | 37225 ft | 441 kts | 16° |
| 2026-04-29 01:05 | 47.21622 | 16.21309 | 37236 ft | 441 kts | 16° |
| 2026-04-29 01:06 | 47.27209 | 16.25010 | 37247 ft | 440 kts | 16° |
| 2026-04-29 01:06 | 47.32757 | 16.28696 | 37249 ft | 440 kts | 16° |
| 2026-04-29 01:07 | 47.38328 | 16.32402 | 37253 ft | 439 kts | 16° |
| 2026-04-29 01:07 | 47.43887 | 16.36112 | 37251 ft | 439 kts | 16° |
| 2026-04-29 01:08 | 47.49451 | 16.39837 | 37254 ft | 438 kts | 16° |
| 2026-04-29 01:08 | 47.55004 | 16.43549 | 37252 ft | 438 kts | 16° |
| 2026-04-29 01:09 | 47.60557 | 16.47276 | 37247 ft | 438 kts | 16° |
| 2026-04-29 01:09 | 47.66107 | 16.51023 | 37247 ft | 438 kts | 16° |
| 2026-04-29 01:10 | 47.71662 | 16.54783 | 37247 ft | 439 kts | 16° |
| 2026-04-29 01:10 | 47.77230 | 16.58552 | 37252 ft | 439 kts | 16° |
| 2026-04-29 01:11 | 47.82757 | 16.62291 | 37256 ft | 439 kts | 16° |
| 2026-04-29 01:11 | 47.87412 | 16.65452 | 37259 ft | 439 kts | 16° |
| 2026-04-29 01:12 | 47.92975 | 16.69246 | 37258 ft | 439 kts | 16° |
| 2026-04-29 01:12 | 47.98532 | 16.73040 | 37263 ft | 439 kts | 16° |
| 2026-04-29 01:13 | 48.04090 | 16.76844 | 37263 ft | 440 kts | 16° |
| 2026-04-29 01:13 | 48.09658 | 16.80663 | 37264 ft | 440 kts | 16° |
| 2026-04-29 01:14 | 48.15221 | 16.84490 | 37266 ft | 440 kts | 17° |
| 2026-04-29 01:14 | 48.20786 | 16.88330 | 37244 ft | 441 kts | 17° |
| 2026-04-29 01:15 | 48.26322 | 16.92122 | 37242 ft | 438 kts | 13° |
| 2026-04-29 01:15 | 48.32126 | 16.94741 | 37241 ft | 431 kts | 7° |
| 2026-04-29 01:16 | 48.37917 | 16.97096 | 37245 ft | 432 kts | 7° |
| 2026-04-29 01:16 | 48.43704 | 16.99476 | 37251 ft | 432 kts | 8° |
| 2026-04-29 01:17 | 48.49517 | 17.01874 | 37256 ft | 432 kts | 8° |
| 2026-04-29 01:17 | 48.55309 | 17.04268 | 37268 ft | 432 kts | 8° |
| 2026-04-29 01:18 | 48.61114 | 17.06673 | 37269 ft | 432 kts | 8° |
| 2026-04-29 01:18 | 48.69797 | 17.10290 | 37270 ft | 432 kts | 8° |
| 2026-04-29 01:19 | 48.75590 | 17.12703 | 37276 ft | 432 kts | 8° |
| 2026-04-29 01:19 | 48.81373 | 17.15129 | 37279 ft | 431 kts | 8° |
| 2026-04-29 01:20 | 48.87122 | 17.18130 | 37268 ft | 441 kts | 19° |
| 2026-04-29 01:20 | 48.92569 | 17.22299 | 37278 ft | 442 kts | 19° |
| 2026-04-29 01:21 | 48.98057 | 17.26486 | 37288 ft | 442 kts | 19° |
| 2026-04-29 01:21 | 49.03563 | 17.30684 | 37282 ft | 442 kts | 19° |
| 2026-04-29 01:22 | 49.09054 | 17.34888 | 37279 ft | 442 kts | 20° |
| 2026-04-29 01:22 | 49.14572 | 17.39141 | 37185 ft | 443 kts | 20° |
| 2026-04-29 01:23 | 49.17331 | 17.41273 | 36532 ft | 445 kts | 20° |
| 2026-04-29 01:23 | 49.20097 | 17.43406 | 35751 ft | 446 kts | 19° |
| 2026-04-29 01:23 | 49.22878 | 17.45549 | 34894 ft | 449 kts | 19° |
| 2026-04-29 01:23 | 49.25676 | 17.47708 | 33989 ft | 452 kts | 19° |
| 2026-04-29 01:24 | 49.28487 | 17.49882 | 33040 ft | 453 kts | 19° |
| 2026-04-29 01:24 | 49.31303 | 17.52062 | 32234 ft | 452 kts | 19° |
| 2026-04-29 01:24 | 49.33971 | 17.54432 | 31663 ft | 450 kts | 24° |
| 2026-04-29 01:24 | 49.36624 | 17.56997 | 31013 ft | 447 kts | 25° |
| 2026-04-29 01:25 | 49.39239 | 17.59537 | 30384 ft | 443 kts | 25° |
| 2026-04-29 01:25 | 49.41825 | 17.62056 | 29685 ft | 438 kts | 25° |
| 2026-04-29 01:25 | 49.44415 | 17.64582 | 29079 ft | 432 kts | 25° |
| 2026-04-29 01:25 | 49.46937 | 17.67040 | 28472 ft | 426 kts | 25° |
| 2026-04-29 01:26 | 49.49428 | 17.69466 | 27884 ft | 421 kts | 25° |
| 2026-04-29 01:26 | 49.51890 | 17.71862 | 27298 ft | 417 kts | 25° |
| 2026-04-29 01:26 | 49.54332 | 17.74239 | 26717 ft | 412 kts | 26° |
| 2026-04-29 01:26 | 49.56744 | 17.76583 | 26149 ft | 409 kts | 26° |
| 2026-04-29 01:27 | 49.59136 | 17.78910 | 25592 ft | 405 kts | 26° |
| 2026-04-29 01:27 | 49.61509 | 17.81223 | 25058 ft | 401 kts | 26° |
| 2026-04-29 01:27 | 49.63855 | 17.83516 | 24529 ft | 397 kts | 26° |
| 2026-04-29 01:27 | 49.66172 | 17.85788 | 24026 ft | 394 kts | 26° |
| 2026-04-29 01:28 | 49.68474 | 17.88046 | 23493 ft | 390 kts | 26° |
| 2026-04-29 01:28 | 49.70758 | 17.90290 | 23002 ft | 385 kts | 26° |
| 2026-04-29 01:28 | 49.73009 | 17.92504 | 22525 ft | 381 kts | 26° |
| 2026-04-29 01:28 | 49.75239 | 17.94700 | 22057 ft | 377 kts | 27° |
| 2026-04-29 01:29 | 49.77435 | 17.96868 | 21597 ft | 373 kts | 27° |
| 2026-04-29 01:29 | 49.79618 | 17.99025 | 21113 ft | 370 kts | 27° |
| 2026-04-29 01:29 | 49.81777 | 18.01159 | 20643 ft | 367 kts | 27° |
| 2026-04-29 01:29 | 49.83922 | 18.03280 | 20161 ft | 365 kts | 27° |
| 2026-04-29 01:30 | 49.86028 | 18.05367 | 19674 ft | 363 kts | 27° |
| 2026-04-29 01:30 | 49.88173 | 18.07491 | 19178 ft | 361 kts | 27° |
| 2026-04-29 01:30 | 49.90262 | 18.09560 | 18706 ft | 360 kts | 27° |
| 2026-04-29 01:30 | 49.92397 | 18.11681 | 18166 ft | 358 kts | 27° |
| 2026-04-29 01:31 | 49.94475 | 18.13748 | 17678 ft | 355 kts | 28° |
| 2026-04-29 01:31 | 49.96559 | 18.15820 | 17195 ft | 353 kts | 28° |
| 2026-04-29 01:31 | 49.98622 | 18.17871 | 16705 ft | 350 kts | 28° |
| 2026-04-29 01:31 | 50.00666 | 18.19908 | 16250 ft | 347 kts | 28° |
| 2026-04-29 01:32 | 50.02709 | 18.21889 | 15783 ft | 345 kts | 27° |
| 2026-04-29 01:32 | 50.04755 | 18.23815 | 15317 ft | 343 kts | 26° |
| 2026-04-29 01:32 | 50.06798 | 18.25710 | 14855 ft | 341 kts | 26° |
| 2026-04-29 01:32 | 50.08828 | 18.27590 | 14388 ft | 339 kts | 26° |
| 2026-04-29 01:33 | 50.10851 | 18.29471 | 13901 ft | 338 kts | 27° |
| 2026-04-29 01:33 | 50.12858 | 18.31351 | 13407 ft | 335 kts | 27° |
| 2026-04-29 01:33 | 50.14848 | 18.33223 | 12940 ft | 332 kts | 27° |
| 2026-04-29 01:33 | 50.16819 | 18.35082 | 12457 ft | 329 kts | 27° |
| 2026-04-29 01:34 | 50.18768 | 18.36926 | 11981 ft | 327 kts | 27° |
| 2026-04-29 01:34 | 50.20703 | 18.38762 | 11504 ft | 324 kts | 28° |
| 2026-04-29 01:34 | 50.22616 | 18.40583 | 11026 ft | 321 kts | 28° |
| 2026-04-29 01:34 | 50.24520 | 18.42392 | 10645 ft | 316 kts | 28° |
| 2026-04-29 01:35 | 50.26350 | 18.44135 | 10523 ft | 302 kts | 28° |
| 2026-04-29 01:35 | 50.28109 | 18.45814 | 10400 ft | 290 kts | 27° |
| 2026-04-29 01:35 | 50.29791 | 18.47416 | 10264 ft | 279 kts | 27° |
| 2026-04-29 01:35 | 50.31440 | 18.48982 | 9993 ft | 273 kts | 27° |
| 2026-04-29 01:36 | 50.33079 | 18.50536 | 9682 ft | 271 kts | 27° |
| 2026-04-29 01:36 | 50.34684 | 18.52058 | 9332 ft | 269 kts | 28° |
| 2026-04-29 01:36 | 50.36259 | 18.53553 | 8975 ft | 267 kts | 28° |
| 2026-04-29 01:36 | 50.37841 | 18.55058 | 8629 ft | 265 kts | 28° |
| 2026-04-29 01:37 | 50.39422 | 18.56567 | 8118 ft | 267 kts | 29° |
| 2026-04-29 01:37 | 50.40690 | 18.57782 | 7743 ft | 259 kts | 29° |
| 2026-04-29 01:37 | 50.42194 | 18.59228 | 7351 ft | 246 kts | 29° |
| 2026-04-29 01:37 | 50.43625 | 18.60598 | 7021 ft | 233 kts | 30° |
| 2026-04-29 01:38 | 50.44969 | 18.61885 | 6715 ft | 220 kts | 30° |
| 2026-04-29 01:38 | 50.46225 | 18.63145 | 6415 ft | 216 kts | 38° |
| 2026-04-29 01:38 | 50.47186 | 18.64951 | 6122 ft | 218 kts | 60° |
| 2026-04-29 01:38 | 50.47620 | 18.67234 | 5818 ft | 221 kts | 84° |
| 2026-04-29 01:39 | 50.47634 | 18.69655 | 5516 ft | 222 kts | 88° |
| 2026-04-29 01:39 | 50.47632 | 18.72070 | 5211 ft | 221 kts | 88° |
| 2026-04-29 01:39 | 50.47632 | 18.74478 | 4905 ft | 220 kts | 88° |
| 2026-04-29 01:39 | 50.47633 | 18.76885 | 4599 ft | 219 kts | 88° |
| 2026-04-29 01:40 | 50.47634 | 18.79273 | 4311 ft | 218 kts | 89° |
| 2026-04-29 01:40 | 50.47633 | 18.81686 | 4009 ft | 217 kts | 89° |
| 2026-04-29 01:40 | 50.47633 | 18.84041 | 3712 ft | 216 kts | 89° |
| 2026-04-29 01:40 | 50.47632 | 18.86342 | 3430 ft | 204 kts | 89° |
| 2026-04-29 01:41 | 50.47632 | 18.88506 | 3184 ft | 192 kts | 89° |
| 2026-04-29 01:41 | 50.47632 | 18.90527 | 2920 ft | 179 kts | 89° |
| 2026-04-29 01:41 | 50.47631 | 18.92409 | 2672 ft | 165 kts | 89° |
| 2026-04-29 01:41 | 50.47629 | 18.94108 | 2483 ft | 147 kts | 89° |
| 2026-04-29 01:42 | 50.47623 | 18.95650 | 2277 ft | 138 kts | 89° |
| 2026-04-29 01:42 | 50.47622 | 18.97130 | 2098 ft | 134 kts | 88° |
| 2026-04-29 01:42 | 50.47620 | 18.98578 | 1912 ft | 132 kts | 88° |
| 2026-04-29 01:42 | 50.47618 | 19.00001 | 1729 ft | 132 kts | 89° |
| 2026-04-29 01:43 | 50.47616 | 19.01445 | 1562 ft | 133 kts | 89° |
| 2026-04-29 01:43 | 50.47610 | 19.02900 | 1413 ft | 134 kts | 89° |
| 2026-04-29 01:43 | 50.47606 | 19.04360 | 1261 ft | 134 kts | 89° |
| 2026-04-29 01:43 | 50.47606 | 19.05825 | 1040 ft | 134 kts | 90° |
| 2026-04-29 01:44 | 50.47602 | 19.07191 | 995 ft | 109 kts | 90° |
| 2026-04-29 01:44 | 50.47600 | 19.08110 | 1002 ft | 59 kts | 90° |
| 2026-04-29 01:44 | 50.47599 | 19.08661 | 1006 ft | 48 kts | 90° |
| 2026-04-29 01:44 | 50.47600 | 19.09150 | 1012 ft | 41 kts | 90° |
| 2026-04-29 01:45 | 50.47571 | 19.09373 | 1014 ft | 15 kts | 139° |
| 2026-04-29 01:45 | 50.47486 | 19.09389 | 1014 ft | 0 kts | 180° |
| 2026-04-29 01:46 | 50.47452 | 19.09389 | 1013 ft | 10 kts | 180° |
| 2026-04-29 01:46 | 50.47384 | 19.09389 | 1012 ft | 9 kts | 180° |
| 2026-04-29 01:46 | 50.47325 | 19.09389 | 1012 ft | 8 kts | 181° |
| 2026-04-29 01:46 | 50.47252 | 19.09375 | 1012 ft | 17 kts | 208° |
| 2026-04-29 01:47 | 50.47232 | 19.09188 | 1010 ft | 20 kts | 270° |
| 2026-04-29 01:47 | 50.47232 | 19.09021 | 1009 ft | 25 kts | 270° |
| 2026-04-29 01:47 | 50.47233 | 19.08735 | 1007 ft | 27 kts | 270° |
| 2026-04-29 01:47 | 50.47233 | 19.08312 | 1009 ft | 31 kts | 270° |
| 2026-04-29 01:48 | 50.47234 | 19.08086 | 1009 ft | 32 kts | 270° |
| 2026-04-29 01:48 | 50.47235 | 19.07757 | 1007 ft | 29 kts | 270° |
| 2026-04-29 01:48 | 50.47235 | 19.07441 | 999 ft | 23 kts | 270° |
| 2026-04-29 01:48 | 50.47235 | 19.07230 | 1001 ft | 13 kts | 270° |
| 2026-04-29 01:49 | 50.47230 | 19.07154 | 999 ft | 4 kts | 221° |
| 2026-04-29 01:49 | 50.47205 | 19.07149 | 998 ft | 2 kts | 179° |
| 2026-04-29 01:49 | 50.47196 | 19.07149 | 997 ft | 1 kts | 180° |
| 2026-04-29 01:49 | 50.47191 | 19.07149 | 996 ft | 1 kts | 180° |
| 2026-04-29 01:50 | 50.47185 | 19.07149 | 998 ft | 2 kts | 180° |
| 2026-04-29 01:50 | 50.47180 | 19.07149 | 998 ft | 0 kts | 180° |
| 2026-04-29 01:50 | 50.47177 | 19.07149 | 997 ft | 0 kts | 180° |